Time;durP1;ratioP1;P1;durP2;ratioP2;P2;SDS_P1;SDS_P2;PMS_P1;PMS_P2;Temp;Humidity;BMP_temperature;BMP_pressure;BME280_temperature;BME280_humidity;BME280_pressure;Samples;Min_cycle;Max_cycle;Signal;HPM_P1;HPM_P2
2023/07/23 00:01:42;;;;;;;13.55;10.80;;;;;;;22.52;85.83;92919.50;5049071;28;20225;-71
2023/07/23 00:04:07;;;;;;;14.63;9.85;;;;;;;22.47;85.82;92914.41;5049661;28;20236;-70
2023/07/23 00:06:33;;;;;;;14.07;9.68;;;;;;;22.50;86.02;92924.38;5049106;28;20284;-70
2023/07/23 00:08:59;;;;;;;12.77;10.60;;;;;;;22.53;85.50;92881.13;5049471;28;20204;-70
2023/07/23 00:11:24;;;;;;;16.77;9.73;;;;;;;22.60;84.82;92923.09;5049086;28;20225;-70
2023/07/23 00:13:49;;;;;;;14.60;11.00;;;;;;;22.69;83.54;92903.19;5053941;28;20267;-70
2023/07/23 00:16:15;;;;;;;11.98;9.82;;;;;;;22.69;84.51;92916.50;5051544;28;20206;-70
2023/07/23 00:18:40;;;;;;;11.35;10.27;;;;;;;22.60;85.78;92912.47;5050048;28;20204;-70
2023/07/23 00:21:05;;;;;;;16.30;10.93;;;;;;;22.39;86.18;92938.50;5049021;28;20220;-69
2023/07/23 00:23:31;;;;;;;17.40;10.70;;;;;;;22.43;85.86;92934.81;5049541;28;20189;-70
2023/07/23 00:25:56;;;;;;;16.08;11.90;;;;;;;22.51;86.06;92938.44;5048733;28;20288;-70
2023/07/23 00:28:22;;;;;;;18.38;10.43;;;;;;;22.36;87.00;92936.53;5049370;28;20207;-70
2023/07/23 00:30:48;;;;;;;13.63;9.80;;;;;;;22.39;86.71;92933.19;5037089;28;20218;-70
2023/07/23 00:33:13;;;;;;;12.52;10.52;;;;;;;22.43;87.46;92939.38;5028919;28;20197;-70
2023/07/23 00:35:38;;;;;;;14.57;10.57;;;;;;;22.27;87.75;92925.28;5038716;28;20225;-70
2023/07/23 00:38:04;;;;;;;12.02;10.27;;;;;;;22.38;87.76;92943.09;5049436;28;20196;-70
2023/07/23 00:40:29;;;;;;;14.65;11.00;;;;;;;22.08;90.14;92941.94;5048558;28;20243;-70
2023/07/23 00:42:55;;;;;;;16.20;10.20;;;;;;;22.09;89.91;92946.91;5049405;28;20206;-70
2023/07/23 00:45:20;;;;;;;11.85;10.55;;;;;;;22.27;89.35;92949.25;5048590;28;20216;-71
2023/07/23 00:47:45;;;;;;;12.80;10.90;;;;;;;22.16;90.37;92951.63;5049698;28;20181;-69
2023/07/23 00:50:13;;;;;;;15.65;11.40;;;;;;;22.24;89.28;92943.47;5042530;28;20375;-70
2023/07/23 00:52:39;;;;;;;12.35;10.80;;;;;;;22.19;89.45;92935.00;5029459;28;20185;-70
2023/07/23 00:55:06;;;;;;;14.10;10.80;;;;;;;21.79;91.05;92921.03;5034534;28;20220;-70
2023/07/23 00:57:31;;;;;;;11.77;10.48;;;;;;;22.14;90.57;92943.22;5049443;28;20191;-70
2023/07/23 00:59:56;;;;;;;12.35;11.13;;;;;;;22.03;91.71;92960.78;5048377;28;20254;-70
2023/07/23 01:02:25;;;;;;;16.25;10.75;;;;;;;22.06;90.87;92952.13;5058864;28;20193;-70
2023/07/23 01:04:50;;;;;;;18.45;12.40;;;;;;;21.98;91.22;92961.81;5051437;28;20287;-70
2023/07/23 01:07:16;;;;;;;12.57;11.13;;;;;;;22.26;88.93;92967.06;5058465;28;20192;-70
2023/07/23 01:09:43;;;;;;;14.23;10.98;;;;;;;22.04;90.10;92957.00;5048403;28;20203;-68
2023/07/23 01:12:08;;;;;;;13.73;10.82;;;;;;;22.23;89.66;92959.78;5048948;28;20216;-70
2023/07/23 01:14:35;;;;;;;11.98;10.65;;;;;;;22.33;89.28;92977.91;5048496;28;20187;-70
2023/07/23 01:17:00;;;;;;;13.82;11.50;;;;;;;22.30;89.40;92975.16;5049178;28;20276;-70
2023/07/23 01:19:26;;;;;;;15.63;10.90;;;;;;;22.14;89.86;92975.13;5051219;28;20200;-71
2023/07/23 01:22:00;;;;;;;12.35;11.07;;;;;;;22.09;90.27;92988.66;5052343;28;20187;-70
2023/07/23 01:24:25;;;;;;;12.77;10.45;;;;;;;21.88;92.10;92983.53;5052679;28;20187;-71
2023/07/23 01:26:50;;;;;;;14.35;11.52;;;;;;;21.92;91.79;92978.34;5060485;28;20206;-69
2023/07/23 01:29:16;;;;;;;19.60;11.65;;;;;;;21.95;91.96;92983.75;5052260;28;20216;-71
2023/07/23 01:31:41;;;;;;;17.55;11.32;;;;;;;22.01;91.56;92985.06;5051885;28;20254;-70
2023/07/23 01:34:07;;;;;;;16.80;12.07;;;;;;;21.86;91.44;92988.44;5055376;28;20206;-70
2023/07/23 01:36:33;;;;;;;14.50;11.52;;;;;;;21.93;90.14;92995.84;5052055;28;20277;-70
2023/07/23 01:38:58;;;;;;;14.88;11.48;;;;;;;21.91;90.68;92992.75;5051863;28;20243;-70
2023/07/23 01:41:24;;;;;;;16.15;11.68;;;;;;;22.01;90.00;93005.53;5052161;28;20733;-70
2023/07/23 01:43:50;;;;;;;20.55;11.65;;;;;;;21.80;89.01;92991.69;5052152;28;20192;-70
2023/07/23 01:46:15;;;;;;;15.25;11.40;;;;;;;21.92;89.61;93010.25;5051766;28;20280;-70
2023/07/23 01:48:41;;;;;;;16.45;12.15;;;;;;;21.77;89.59;93008.31;5055061;28;20188;-70
2023/07/23 01:51:08;;;;;;;11.93;10.30;;;;;;;21.71;89.90;93020.25;5060231;28;20252;-70
2023/07/23 01:53:34;;;;;;;14.13;11.85;;;;;;;21.30;91.93;93018.69;5050951;28;20161;-70
2023/07/23 01:55:59;;;;;;;19.25;12.50;;;;;;;21.47;91.16;93023.75;5051774;28;20236;-70
2023/07/23 01:58:25;;;;;;;13.25;11.77;;;;;;;21.49;90.80;93034.81;5051712;28;20198;-70
2023/07/23 02:00:56;;;;;;;13.18;11.27;;;;;;;21.54;90.32;93042.53;5039705;28;20229;-70
2023/07/23 02:03:22;;;;;;;17.08;11.75;;;;;;;21.39;90.15;93045.09;5032980;28;20224;-70
2023/07/23 02:05:58;;;;;;;15.98;10.93;;;;;;;21.56;88.81;93050.16;5043242;28;20230;-69
2023/07/23 02:08:23;;;;;;;12.63;11.02;;;;;;;21.54;87.38;93057.72;5050717;28;20179;-70
2023/07/23 02:10:49;;;;;;;12.93;11.27;;;;;;;21.61;88.04;93060.56;5051217;28;20223;-70
2023/07/23 02:13:14;;;;;;;13.88;11.15;;;;;;;21.74;87.15;93076.16;5051292;28;20240;-70
2023/07/23 02:15:39;;;;;;;17.33;11.55;;;;;;;21.66;86.72;93079.75;5051409;28;20262;-70
2023/07/23 02:18:05;;;;;;;15.13;11.25;;;;;;;21.73;83.44;93071.19;5051470;28;20185;-69
2023/07/23 02:20:30;;;;;;;10.82;9.52;;;;;;;21.84;82.81;93072.28;5051512;28;20245;-70
2023/07/23 02:22:56;;;;;;;17.38;11.02;;;;;;;21.89;82.24;93066.75;5051377;28;20196;-69
2023/07/23 02:25:22;;;;;;;12.50;10.55;;;;;;;21.99;81.50;93075.03;5051222;28;20239;-70
2023/07/23 02:27:47;;;;;;;19.15;10.18;;;;;;;22.08;81.14;93077.56;5051364;28;20190;-71
2023/07/23 02:30:12;;;;;;;15.70;10.15;;;;;;;22.16;79.21;93066.75;5050973;28;20288;-69
2023/07/23 02:32:38;;;;;;;23.40;9.90;;;;;;;22.16;78.66;93058.03;5050666;28;20231;-70
2023/07/23 02:35:03;;;;;;;18.67;10.70;;;;;;;22.47;79.16;93075.97;5051104;28;20233;-70
2023/07/23 02:37:29;;;;;;;15.75;10.43;;;;;;;22.54;79.25;93063.63;5051029;28;20179;-70
2023/07/23 02:39:54;;;;;;;15.00;11.15;;;;;;;22.68;79.23;93072.00;5050620;28;20239;-70
2023/07/23 02:42:20;;;;;;;15.80;10.60;;;;;;;22.78;78.33;93073.38;5083699;28;20183;-70
2023/07/23 02:44:45;;;;;;;18.83;10.68;;;;;;;22.88;77.66;93072.88;5047855;28;20248;-70
2023/07/23 02:47:10;;;;;;;25.33;11.10;;;;;;;23.00;77.48;93086.13;5034272;28;20249;-70
2023/07/23 02:49:37;;;;;;;20.20;10.95;;;;;;;23.09;77.37;93074.19;5040558;28;20279;-70
2023/07/23 02:52:04;;;;;;;15.32;11.77;;;;;;;23.13;77.70;93080.34;5050693;28;20210;-71
2023/07/23 02:54:30;;;;;;;18.30;10.85;;;;;;;23.14;77.74;93087.25;5049921;28;20191;-70
2023/07/23 02:56:55;;;;;;;19.92;11.45;;;;;;;23.04;78.59;93092.28;5030855;28;20718;-69
2023/07/23 02:59:21;;;;;;;14.95;12.65;;;;;;;22.96;79.41;93094.00;5031171;28;20988;-70
2023/07/23 03:01:46;;;;;;;19.30;12.48;;;;;;;22.95;79.58;93097.81;5051594;28;20220;-70
2023/07/23 03:04:13;;;;;;;19.50;12.68;;;;;;;22.85;80.07;93097.53;5058584;28;20225;-70
2023/07/23 03:06:39;;;;;;;15.10;12.45;;;;;;;22.90;79.65;93108.69;5050111;28;20224;-70
2023/07/23 03:09:04;;;;;;;18.80;12.88;;;;;;;22.93;80.04;93099.25;5050625;28;20212;-69
2023/07/23 03:11:29;;;;;;;17.98;13.15;;;;;;;22.83;80.19;93094.44;5050070;28;20276;-71
2023/07/23 03:13:55;;;;;;;22.85;13.27;;;;;;;22.88;80.16;93094.19;5050640;28;20181;-70
2023/07/23 03:16:20;;;;;;;22.30;15.88;;;;;;;22.84;80.40;93095.97;5050082;28;20245;-70
2023/07/23 03:18:46;;;;;;;21.35;14.73;;;;;;;22.95;79.43;93089.81;5058419;28;20256;-69
2023/07/23 03:21:11;;;;;;;18.85;14.70;;;;;;;23.08;76.27;93093.94;5050102;28;20224;-70
2023/07/23 03:23:36;;;;;;;22.05;13.95;;;;;;;23.18;75.25;93097.97;5050550;28;20199;-70
2023/07/23 03:26:02;;;;;;;19.48;14.93;;;;;;;23.28;74.50;93095.63;5091211;28;20251;-70
2023/07/23 03:28:27;;;;;;;18.60;14.15;;;;;;;23.25;74.95;93093.63;5050439;28;20194;-70
2023/07/23 03:30:52;;;;;;;16.27;13.70;;;;;;;23.27;74.71;93094.06;5049802;28;20349;-70
2023/07/23 03:33:18;;;;;;;18.23;14.20;;;;;;;23.45;72.35;93094.47;5057134;28;20187;-70
2023/07/23 03:35:43;;;;;;;15.18;13.18;;;;;;;23.48;67.92;93091.91;5049493;28;20225;-70
2023/07/23 03:38:09;;;;;;;18.33;13.95;;;;;;;23.63;68.93;93091.09;5050002;28;20208;-70
2023/07/23 03:40:34;;;;;;;13.88;12.45;;;;;;;23.59;63.86;93095.59;5049707;28;20251;-70
2023/07/23 03:42:59;;;;;;;13.90;12.15;;;;;;;23.70;63.64;93085.91;5049484;28;20193;-70
2023/07/23 03:45:25;;;;;;;14.57;13.13;;;;;;;23.86;61.62;93096.53;5049518;28;20208;-70
2023/07/23 03:47:50;;;;;;;12.75;11.27;;;;;;;23.79;63.45;93101.72;5055677;28;20205;-70
2023/07/23 03:50:15;;;;;;;14.10;12.40;;;;;;;23.77;60.17;93097.88;5042624;28;20223;-70
2023/07/23 03:52:41;;;;;;;13.10;11.82;;;;;;;23.95;60.17;93099.81;5030225;28;20177;-70
2023/07/23 03:55:07;;;;;;;12.93;11.60;;;;;;;24.00;59.88;93101.44;5035415;28;20226;-70
2023/07/23 03:57:32;;;;;;;13.43;12.07;;;;;;;24.07;58.72;93112.25;5049965;28;20202;-70
2023/07/23 03:59:57;;;;;;;14.52;11.98;;;;;;;24.22;60.14;93106.13;5048968;28;20226;-70
2023/07/23 04:02:23;;;;;;;12.07;11.02;;;;;;;24.34;59.89;93119.31;5055375;28;20195;-70
2023/07/23 04:04:48;;;;;;;14.30;12.85;;;;;;;24.00;59.55;93080.09;5049032;28;20249;-70
2023/07/23 04:07:13;;;;;;;13.45;12.18;;;;;;;24.09;59.99;93108.13;5049837;28;20187;-70
2023/07/23 04:09:39;;;;;;;14.30;13.00;;;;;;;24.04;61.58;93108.41;5049169;28;20219;-70
2023/07/23 04:12:04;;;;;;;13.00;11.73;;;;;;;24.10;60.65;93101.66;5049863;28;20223;-70
2023/07/23 04:14:30;;;;;;;16.88;13.52;;;;;;;24.27;62.20;93111.16;5048962;28;20210;-70
2023/07/23 04:16:55;;;;;;;15.00;13.05;;;;;;;24.36;61.45;93109.81;5049289;28;20177;-70
2023/07/23 04:19:21;;;;;;;12.48;11.35;;;;;;;24.27;58.00;93111.16;5049920;28;20188;-69
2023/07/23 04:21:47;;;;;;;12.10;10.82;;;;;;;24.43;59.10;93111.88;5049207;28;20220;-70
2023/07/23 04:24:12;;;;;;;12.05;10.70;;;;;;;24.45;59.31;93097.03;5049546;28;20248;-71
2023/07/23 04:26:37;;;;;;;11.63;9.60;;;;;;;24.47;54.42;93099.34;5053070;28;20610;-70
2023/07/23 04:29:03;;;;;;;11.43;10.07;;;;;;;24.54;52.89;93108.28;5049328;28;20236;-70
2023/07/23 04:31:28;;;;;;;10.75;9.80;;;;;;;24.62;53.63;93101.19;5050154;28;20765;-70
2023/07/23 04:33:54;;;;;;;10.95;9.82;;;;;;;24.46;51.42;93097.81;5049328;28;20192;-70
2023/07/23 04:36:20;;;;;;;11.63;10.73;;;;;;;24.66;50.93;93115.41;5048726;28;20216;-70
2023/07/23 04:38:45;;;;;;;11.00;10.10;;;;;;;24.71;49.88;93115.13;5048123;28;20188;-70
2023/07/23 04:41:11;;;;;;;10.60;9.70;;;;;;;24.80;50.82;93113.00;5048927;28;20218;-70
2023/07/23 04:43:38;;;;;;;10.65;9.65;;;;;;;24.77;51.15;93119.03;5049599;28;20189;-70
2023/07/23 04:46:06;;;;;;;10.35;9.45;;;;;;;24.87;49.22;93118.47;5049914;28;20284;-69
2023/07/23 04:48:33;;;;;;;10.43;9.45;;;;;;;25.07;48.93;93125.34;5049070;28;20186;-70
2023/07/23 04:51:00;;;;;;;10.13;9.23;;;;;;;24.97;46.37;93118.66;5058966;28;20255;-70
2023/07/23 04:53:26;;;;;;;10.00;9.20;;;;;;;25.06;46.95;93126.44;5048989;28;20233;-70
2023/07/23 04:55:52;;;;;;;9.63;8.73;;;;;;;25.02;47.98;93109.59;5050200;28;20247;-70
2023/07/23 04:58:18;;;;;;;9.82;9.13;;;;;;;25.05;47.37;93119.56;5053029;28;20185;-70
2023/07/23 05:00:44;;;;;;;9.80;8.95;;;;;;;25.26;48.23;93130.63;5052356;28;20242;-70
2023/07/23 05:03:11;;;;;;;10.82;9.80;;;;;;;25.51;47.52;93129.16;5052695;28;20206;-71
2023/07/23 05:05:40;;;;;;;9.80;9.02;;;;;;;25.60;46.75;93128.91;5052457;28;20229;-70
2023/07/23 05:08:05;;;;;;;10.63;9.70;;;;;;;25.97;46.01;93125.28;5052490;28;20187;-70
2023/07/23 05:10:31;;;;;;;10.73;9.82;;;;;;;26.50;45.51;93134.81;5052518;28;20233;-70
2023/07/23 05:12:56;;;;;;;9.73;8.85;;;;;;;26.64;43.11;93129.66;5052810;28;20196;-69
2023/07/23 05:15:21;;;;;;;10.98;10.00;;;;;;;26.29;44.33;93133.78;5051970;28;20229;-70
2023/07/23 05:17:47;;;;;;;10.02;9.23;;;;;;;26.29;44.88;93128.44;5055613;28;20274;-70
2023/07/23 05:20:12;;;;;;;9.90;9.10;;;;;;;26.10;43.58;93121.28;5052539;28;20237;-71
2023/07/23 05:22:39;;;;;;;10.18;9.30;;;;;;;25.85;43.60;93122.81;5051669;28;20208;-70
2023/07/23 05:25:06;;;;;;;10.00;9.20;;;;;;;26.25;43.68;93123.03;5052187;28;20252;-70
2023/07/23 05:27:31;;;;;;;9.93;9.02;;;;;;;26.25;44.53;93123.03;5052531;28;20245;-70
2023/07/23 05:29:57;;;;;;;10.07;9.13;;;;;;;26.35;43.67;93125.06;5052377;28;20222;-70
2023/07/23 05:32:23;;;;;;;9.55;8.75;;;;;;;25.96;43.53;93123.72;5054824;28;20174;-70
2023/07/23 05:34:48;;;;;;;9.75;8.90;;;;;;;26.15;43.99;93133.59;5052155;28;20237;-70
2023/07/23 05:37:13;;;;;;;9.80;9.00;;;;;;;26.36;42.52;93134.66;5052149;28;20174;-71
2023/07/23 05:39:39;;;;;;;9.45;8.70;;;;;;;26.55;42.45;93131.06;5051819;28;20201;-71
2023/07/23 05:42:05;;;;;;;9.95;9.15;;;;;;;26.16;42.09;93125.19;5052089;28;20185;-70
2023/07/23 05:44:31;;;;;;;10.48;9.48;;;;;;;26.37;41.63;93119.34;5051822;28;20190;-70
2023/07/23 05:46:57;;;;;;;10.65;9.75;;;;;;;26.66;43.48;93131.97;5063781;28;20182;-69
2023/07/23 05:49:26;;;;;;;10.48;9.45;;;;;;;26.54;43.38;93132.94;5058393;28;20205;-70
2023/07/23 05:51:52;;;;;;;9.57;8.88;;;;;;;27.06;42.86;93131.25;5054798;28;20206;-71
2023/07/23 05:54:18;;;;;;;9.85;8.90;;;;;;;27.73;42.47;93135.34;5052141;28;20198;-70
2023/07/23 05:56:43;;;;;;;9.50;8.80;;;;;;;29.32;38.62;93149.28;5051277;28;20225;-70
2023/07/23 05:59:09;;;;;;;9.38;8.48;;;;;;;31.84;33.95;93157.91;5051770;28;20194;-70
2023/07/23 06:01:35;;;;;;;9.95;8.95;;;;;;;34.58;29.61;93170.75;5052518;28;20224;-70
2023/07/23 06:04:00;;;;;;;9.82;8.88;;;;;;;36.15;26.67;93165.94;5051831;28;20186;-70
2023/07/23 06:06:26;;;;;;;9.43;8.48;;;;;;;37.03;25.19;93158.25;5050778;28;20297;-71
2023/07/23 06:08:51;;;;;;;10.07;9.07;;;;;;;37.87;24.64;93171.38;5051612;28;20226;-70
2023/07/23 06:11:17;;;;;;;9.07;8.15;;;;;;;36.61;26.77;93165.56;5035637;28;20250;-70
2023/07/23 06:13:42;;;;;;;8.70;8.00;;;;;;;37.02;26.94;93154.75;5032053;28;20203;-70
2023/07/23 06:16:07;;;;;;;9.05;8.25;;;;;;;36.42;25.67;93161.00;5044788;28;20232;-70
2023/07/23 06:18:35;;;;;;;10.45;9.45;;;;;;;39.14;26.76;93170.69;5051752;28;20193;-71
2023/07/23 06:21:02;;;;;;;13.88;9.82;;;;;;;36.77;29.88;93165.56;5051122;28;20294;-70
2023/07/23 06:23:27;;;;;;;10.05;8.52;;;;;;;38.17;27.99;93168.88;5051441;28;20253;-70
2023/07/23 06:25:56;;;;;;;11.48;10.48;;;;;;;36.92;31.82;93166.69;5059699;28;20237;-71
2023/07/23 06:28:21;;;;;;;13.50;10.40;;;;;;;36.76;31.82;93158.59;5050418;28;20194;-70
2023/07/23 06:30:50;;;;;;;14.45;10.60;;;;;;;39.12;29.01;93179.34;5050086;28;20236;-71
2023/07/23 06:33:15;;;;;;;14.05;10.50;;;;;;;37.99;31.30;93165.94;5050554;28;20182;-71
2023/07/23 06:35:44;;;;;;;10.10;9.20;;;;;;;39.41;29.63;93166.16;5050598;28;20210;-71
2023/07/23 06:38:10;;;;;;;12.50;11.07;;;;;;;38.39;30.43;93168.94;5050978;28;20192;-71
2023/07/23 06:40:35;;;;;;;11.10;9.85;;;;;;;38.24;29.99;93168.66;5050251;28;20570;-71
2023/07/23 06:43:01;;;;;;;11.82;10.70;;;;;;;36.05;34.20;93166.19;5050905;28;20221;-71
2023/07/23 06:45:27;;;;;;;10.60;9.60;;;;;;;36.64;33.41;93153.06;5053244;28;20242;-71
2023/07/23 06:47:52;;;;;;;12.75;9.57;;;;;;;33.80;34.75;93149.53;5030165;28;20206;-71
2023/07/23 06:50:18;;;;;;;10.15;9.15;;;;;;;30.03;39.76;93142.00;5030411;28;20223;-70
2023/07/23 06:52:44;;;;;;;10.02;9.23;;;;;;;29.43;43.15;93152.72;5031122;28;20199;-71
2023/07/23 06:55:09;;;;;;;11.02;9.93;;;;;;;28.34;46.42;93132.72;5030306;28;20872;-70
2023/07/23 06:57:35;;;;;;;16.95;11.20;;;;;;;28.86;48.16;93126.06;5031209;28;20191;-71
2023/07/23 07:00:00;;;;;;;12.05;10.68;;;;;;;28.58;49.67;93132.09;5029914;28;20294;-71
2023/07/23 07:02:26;;;;;;;12.63;10.43;;;;;;;29.07;44.33;93139.59;5030823;28;20681;-70
2023/07/23 07:04:51;;;;;;;12.02;10.07;;;;;;;28.70;46.67;93122.94;5030392;28;20226;-71
2023/07/23 07:07:17;;;;;;;12.18;10.48;;;;;;;28.06;46.37;93122.56;5031016;28;20198;-71
2023/07/23 07:09:42;;;;;;;11.80;10.40;;;;;;;28.30;47.97;93134.59;5032867;28;20796;-71
2023/07/23 07:12:08;;;;;;;10.98;9.82;;;;;;;28.17;48.31;93139.50;5050558;28;20190;-70
2023/07/23 07:14:35;;;;;;;11.68;10.15;;;;;;;27.87;44.94;93135.44;5058399;28;20206;-70
2023/07/23 07:17:00;;;;;;;10.55;9.65;;;;;;;28.01;45.00;93147.09;5049303;28;20257;-70
2023/07/23 07:19:25;;;;;;;10.95;9.85;;;;;;;28.05;44.96;93137.16;5035743;28;20190;-71
2023/07/23 07:21:51;;;;;;;17.95;10.68;;;;;;;28.11;44.24;93135.66;5050340;28;20213;-70
2023/07/23 07:24:17;;;;;;;10.57;9.57;;;;;;;28.30;42.75;93148.03;5050276;28;20187;-70
2023/07/23 07:26:43;;;;;;;11.27;10.07;;;;;;;27.69;44.41;93134.56;5040138;28;20214;-70
2023/07/23 07:29:08;;;;;;;15.65;10.40;;;;;;;27.97;44.98;93150.91;5037013;28;20291;-70
2023/07/23 07:31:34;;;;;;;11.95;10.40;;;;;;;28.14;44.14;93142.19;5029980;28;20226;-70
2023/07/23 07:33:59;;;;;;;11.43;10.38;;;;;;;28.16;44.21;93145.25;5030415;28;20214;-70
2023/07/23 07:36:25;;;;;;;12.63;9.80;;;;;;;28.31;43.33;93144.22;5048958;28;20288;-69
2023/07/23 07:38:50;;;;;;;11.40;10.32;;;;;;;28.41;43.53;93146.19;5049983;28;20197;-71
2023/07/23 07:41:16;;;;;;;10.20;9.30;;;;;;;28.26;42.93;93152.63;5048185;28;21293;-70
2023/07/23 07:43:41;;;;;;;12.93;9.80;;;;;;;28.23;43.33;93148.00;5044624;28;20182;-70
2023/07/23 07:46:08;;;;;;;11.80;9.65;;;;;;;28.13;43.53;93141.41;5043728;28;20222;-70
2023/07/23 07:48:35;;;;;;;12.43;10.23;;;;;;;28.35;43.41;93144.22;5049811;28;20187;-70
2023/07/23 07:51:06;;;;;;;12.13;9.70;;;;;;;28.44;43.90;93148.09;5054905;28;20243;-70
2023/07/23 07:53:33;;;;;;;10.48;9.20;;;;;;;28.66;43.74;93157.06;5049963;28;20175;-70
2023/07/23 07:56:00;;;;;;;11.50;9.73;;;;;;;28.64;43.89;93145.94;5049472;28;20218;-70
2023/07/23 07:58:26;;;;;;;10.38;9.30;;;;;;;28.52;43.71;93127.44;5049124;28;20240;-70
2023/07/23 08:00:53;;;;;;;11.40;10.20;;;;;;;28.54;42.86;93136.69;5049184;28;20226;-70
2023/07/23 08:03:19;;;;;;;9.48;8.75;;;;;;;28.53;43.50;93132.44;5049478;28;20191;-70
2023/07/23 08:05:45;;;;;;;11.07;9.77;;;;;;;28.28;43.74;93137.66;5049236;28;20230;-70
2023/07/23 08:08:14;;;;;;;13.52;10.35;;;;;;;28.44;44.42;93142.72;5049445;28;20186;-70
2023/07/23 08:10:40;;;;;;;13.32;9.85;;;;;;;28.44;42.98;93133.94;5049080;28;20241;-70
2023/07/23 08:13:07;;;;;;;12.43;10.70;;;;;;;28.53;43.92;93143.19;5081478;28;20180;-70
2023/07/23 08:15:34;;;;;;;10.75;9.65;;;;;;;28.56;45.00;93139.00;5038745;28;20226;-70
2023/07/23 08:17:59;;;;;;;11.07;10.07;;;;;;;28.82;44.80;93147.56;5029808;28;20250;-70
2023/07/23 08:20:27;;;;;;;11.23;10.13;;;;;;;28.82;44.40;93147.56;5029122;28;20257;-70
2023/07/23 08:22:54;;;;;;;11.25;10.35;;;;;;;28.90;43.82;93151.81;5061993;28;20199;-70
2023/07/23 08:25:19;;;;;;;10.65;9.57;;;;;;;28.60;44.97;93151.31;5045014;28;20235;-70
2023/07/23 08:27:48;;;;;;;12.23;10.32;;;;;;;28.84;44.50;93150.63;5050573;28;20212;-70
2023/07/23 08:30:14;;;;;;;11.80;10.77;;;;;;;28.51;44.43;93144.72;5052249;28;20238;-70
2023/07/23 08:32:41;;;;;;;11.40;10.40;;;;;;;28.57;45.97;93140.53;5053990;28;20180;-69
2023/07/23 08:35:07;;;;;;;13.38;10.38;;;;;;;28.86;44.79;93150.25;5053260;28;20289;-70
2023/07/23 08:37:33;;;;;;;10.43;9.35;;;;;;;28.42;42.47;93147.75;5053264;28;20207;-70
2023/07/23 08:39:58;;;;;;;10.77;9.75;;;;;;;28.50;42.49;93143.94;5052066;28;20258;-70
2023/07/23 08:42:56;;;;;;;13.07;10.82;;;;;;;28.35;42.75;93136.94;5052911;28;20243;-70
2023/07/23 08:45:27;;;;;;;12.63;10.52;;;;;;;28.09;43.11;93137.19;5044950;28;20221;-70
2023/07/23 08:48:04;;;;;;;10.45;9.55;;;;;;;28.17;43.03;93134.16;5053345;28;20199;-70
2023/07/23 08:50:31;;;;;;;11.27;9.85;;;;;;;28.30;43.26;93137.28;5062380;28;20227;-70
2023/07/23 08:52:56;;;;;;;12.27;11.05;;;;;;;28.08;45.15;93136.41;5053489;28;20213;-70
2023/07/23 08:55:22;;;;;;;12.80;10.32;;;;;;;28.37;43.32;93134.66;5052614;28;20217;-70
2023/07/23 08:57:48;;;;;;;11.77;10.57;;;;;;;28.37;42.94;93134.66;5052401;28;20197;-70
2023/07/23 09:00:14;;;;;;;13.00;11.57;;;;;;;28.71;42.17;93136.00;5052624;28;20226;-70
2023/07/23 09:02:41;;;;;;;11.05;10.05;;;;;;;28.47;42.63;93130.47;5052391;28;20262;-70
2023/07/23 09:05:07;;;;;;;13.05;10.65;;;;;;;28.28;44.54;93126.91;5051614;28;20312;-70
2023/07/23 09:07:34;;;;;;;11.18;10.18;;;;;;;28.36;44.06;93130.41;5053041;28;20205;-69
2023/07/23 09:09:59;;;;;;;11.45;10.40;;;;;;;28.76;43.21;93127.56;5052188;28;20815;-70
2023/07/23 09:12:25;;;;;;;15.95;10.98;;;;;;;28.78;44.14;93130.63;5041142;28;20290;-71
2023/07/23 09:14:51;;;;;;;13.48;11.45;;;;;;;28.69;44.80;93127.53;5065015;28;20228;-71
2023/07/23 09:17:20;;;;;;;12.70;10.50;;;;;;;28.85;44.71;93135.25;5052810;28;20197;-70
2023/07/23 09:19:46;;;;;;;12.82;11.60;;;;;;;28.78;43.93;93125.25;5052123;28;20248;-70
2023/07/23 09:22:11;;;;;;;14.35;11.07;;;;;;;28.97;42.99;93138.38;5048327;28;20171;-68
2023/07/23 09:24:37;;;;;;;10.98;9.95;;;;;;;28.85;41.56;93127.97;5054686;28;20192;-70
2023/07/23 09:27:03;;;;;;;12.15;10.93;;;;;;;29.05;44.50;93139.16;5068265;28;20181;-70
2023/07/23 09:29:35;;;;;;;12.75;11.27;;;;;;;28.94;43.84;93144.53;5052184;28;20217;-70
2023/07/23 09:32:01;;;;;;;15.60;11.05;;;;;;;28.90;42.74;93149.13;5052291;28;20204;-70
2023/07/23 09:34:26;;;;;;;12.43;11.05;;;;;;;28.85;44.21;93146.03;5052480;28;20201;-70
2023/07/23 09:36:53;;;;;;;11.35;10.25;;;;;;;28.88;42.37;93134.50;5052234;28;20223;-70
2023/07/23 09:39:19;;;;;;;12.52;10.23;;;;;;;28.79;43.51;93126.81;5052277;28;20202;-70
2023/07/23 09:41:45;;;;;;;11.98;10.80;;;;;;;29.00;42.93;93132.25;5060216;28;20327;-69
2023/07/23 09:44:13;;;;;;;16.00;11.40;;;;;;;29.07;42.93;93137.69;5052260;28;20193;-70
2023/07/23 09:46:43;;;;;;;14.60;11.82;;;;;;;28.87;41.59;93139.13;5051866;28;20225;-70
2023/07/23 09:49:09;;;;;;;15.48;11.18;;;;;;;28.67;41.79;93137.13;5056863;28;20213;-71
2023/07/23 09:51:37;;;;;;;14.18;11.77;;;;;;;28.59;42.76;93124.81;5056614;28;20786;-70
2023/07/23 09:54:03;;;;;;;12.55;11.23;;;;;;;28.66;41.98;93125.59;5052393;28;20189;-70
2023/07/23 09:56:29;;;;;;;15.65;11.50;;;;;;;28.99;41.61;93133.41;5059180;28;20227;-70
2023/07/23 09:58:54;;;;;;;12.90;11.70;;;;;;;28.99;41.45;93101.13;5052021;28;20192;-70
2023/07/23 10:01:20;;;;;;;13.70;11.38;;;;;;;29.32;40.41;93122.38;5051613;28;20231;-71
2023/07/23 10:03:48;;;;;;;13.63;12.00;;;;;;;29.30;40.38;93124.66;5050983;28;20206;-70
2023/07/23 10:06:15;;;;;;;13.98;11.60;;;;;;;29.42;40.20;93121.59;5036533;28;20573;-70
2023/07/23 10:08:44;;;;;;;14.20;12.25;;;;;;;29.33;39.88;93129.28;5032192;28;20266;-70
2023/07/23 10:11:11;;;;;;;12.07;10.90;;;;;;;29.10;39.21;93123.47;5051830;28;20241;-70
2023/07/23 10:13:37;;;;;;;16.08;11.82;;;;;;;29.27;39.91;93130.81;5051842;28;20250;-70
2023/07/23 10:16:07;;;;;;;12.70;11.45;;;;;;;29.35;39.57;93121.59;5044691;28;20240;-69
2023/07/23 10:18:35;;;;;;;14.93;11.10;;;;;;;29.02;37.46;93129.94;5031006;28;20191;-70
2023/07/23 10:21:01;;;;;;;14.30;11.98;;;;;;;29.34;39.17;93136.19;5044540;28;20251;-70
2023/07/23 10:23:27;;;;;;;13.95;11.63;;;;;;;29.36;36.83;93125.81;5052251;28;20189;-70
2023/07/23 10:26:20;;;;;;;12.95;11.18;;;;;;;29.27;36.59;93124.66;5059735;28;20218;-70
2023/07/23 10:28:45;;;;;;;17.95;12.27;;;;;;;29.04;37.72;93113.44;5051165;28;20213;-70
2023/07/23 10:31:27;;;;;;;13.48;11.35;;;;;;;29.32;38.79;93116.97;5050768;28;20315;-70
2023/07/23 10:33:53;;;;;;;13.50;12.10;;;;;;;29.64;39.10;93114.31;5051325;28;20188;-71
2023/07/23 10:36:22;;;;;;;13.93;12.02;;;;;;;29.69;37.05;93117.41;5050907;28;20245;-70
2023/07/23 10:39:08;;;;;;;17.52;12.90;;;;;;;29.59;37.52;93110.06;5051288;28;20200;-70
2023/07/23 10:41:55;;;;;;;14.82;11.55;;;;;;;29.67;37.19;93122.41;5029204;28;20228;-70
2023/07/23 10:44:27;;;;;;;15.98;12.88;;;;;;;29.45;36.66;93115.44;5026281;28;20186;-70
2023/07/23 10:46:55;;;;;;;18.60;12.68;;;;;;;29.45;37.90;93109.28;5027178;28;20203;-70
2023/07/23 10:49:23;;;;;;;16.40;12.25;;;;;;;29.66;37.81;93117.41;5037168;28;20214;-70
2023/07/23 10:51:50;;;;;;;15.15;13.02;;;;;;;29.85;37.81;93122.41;5033809;28;20227;-70
2023/07/23 10:54:17;;;;;;;12.93;11.50;;;;;;;29.79;37.68;93104.34;5031624;28;20201;-71
2023/07/23 10:56:43;;;;;;;17.80;12.75;;;;;;;29.78;36.29;93105.50;5048488;28;20298;-70
2023/07/23 10:59:19;;;;;;;15.05;12.55;;;;;;;29.50;36.37;93109.69;5050585;28;20192;-70
2023/07/23 11:01:46;;;;;;;20.83;12.93;;;;;;;29.53;36.07;93114.31;5050264;28;20890;-70
2023/07/23 11:04:11;;;;;;;15.60;13.32;;;;;;;29.75;36.73;93107.03;5050811;28;20963;-70
2023/07/23 11:06:41;;;;;;;19.77;13.50;;;;;;;29.51;36.70;93118.53;5049360;28;20247;-70
2023/07/23 11:09:10;;;;;;;16.65;12.23;;;;;;;29.59;35.25;93114.69;5050585;28;20198;-70
2023/07/23 11:11:38;;;;;;;15.38;12.40;;;;;;;29.55;35.62;93117.38;5050310;28;20217;-70
2023/07/23 11:14:19;;;;;;;18.35;12.23;;;;;;;29.51;35.80;93113.91;5049966;28;20181;-70
2023/07/23 11:16:49;;;;;;;16.63;12.80;;;;;;;29.40;35.88;93110.44;5031068;28;20217;-70